createdAt,value
2022-08-03T00:00:38.774Z,18.81
2022-08-03T00:03:07.577Z,18.78
2022-08-03T00:05:37.146Z,18.74
2022-08-03T00:08:05.531Z,18.71
2022-08-03T00:10:35.413Z,18.68
2022-08-03T00:13:04.622Z,18.64
2022-08-03T00:15:32.826Z,18.63
2022-08-03T00:18:01.539Z,18.59
2022-08-03T00:20:30.418Z,18.54
2022-08-03T00:22:58.861Z,18.53
2022-08-03T00:25:27.487Z,18.53
2022-08-03T00:27:56.374Z,18.53
2022-08-03T00:30:30.962Z,18.54
2022-08-03T00:32:59.939Z,18.55
2022-08-03T00:35:49.228Z,18.56
2022-08-03T00:38:19.482Z,18.56
2022-08-03T00:40:47.824Z,18.56
2022-08-03T00:43:16.927Z,18.54
2022-08-03T00:45:45.167Z,18.52
2022-08-03T00:48:19.661Z,18.49
2022-08-03T00:51:07.301Z,18.49
2022-08-03T00:53:37.502Z,18.48
2022-08-03T00:56:06.623Z,18.45
2022-08-03T00:58:39.631Z,18.41
2022-08-03T01:01:08.875Z,18.34
2022-08-03T01:03:37.098Z,18.25
2022-08-03T01:06:38.316Z,18.16
2022-08-03T01:09:28.042Z,18.12
2022-08-03T01:12:28.967Z,18.14
2022-08-03T01:15:12.455Z,18.14
2022-08-03T01:18:03.822Z,18.07
2022-08-03T01:20:35.804Z,18.00
2022-08-03T01:23:22.975Z,17.99
2022-08-03T01:26:16.048Z,17.99
2022-08-03T01:29:18.858Z,17.99
2022-08-03T01:33:00.249Z,17.96
2022-08-03T01:34:57.642Z,17.93
2022-08-03T01:37:35.373Z,17.90
2022-08-03T01:40:09.579Z,17.87
2022-08-03T01:42:40.285Z,17.81
2022-08-03T01:45:12.618Z,17.75
2022-08-03T01:47:42.755Z,17.66
2022-08-03T01:50:13.893Z,17.60
2022-08-03T01:52:46.059Z,17.55
2022-08-03T01:55:19.838Z,17.51
2022-08-03T01:58:06.063Z,17.49
2022-08-03T02:00:39.932Z,17.46
2022-08-03T02:03:10.863Z,17.44
2022-08-03T02:05:41.390Z,17.43
2022-08-03T02:08:13.408Z,17.43
2022-08-03T02:10:43.494Z,17.42
2022-08-03T02:13:13.030Z,17.40
2022-08-03T02:15:42.910Z,17.38
2022-08-03T02:18:12.107Z,17.38
2022-08-03T02:20:43.266Z,17.38
2022-08-03T02:23:11.673Z,17.39
2022-08-03T02:25:46.139Z,17.38
2022-08-03T02:28:20.430Z,17.37
2022-08-03T02:30:55.250Z,17.35
2022-08-03T02:33:32.686Z,17.32
2022-08-03T02:36:02.396Z,17.29
2022-08-03T02:38:37.114Z,17.24
2022-08-03T02:41:09.298Z,17.23
2022-08-03T02:44:06.271Z,17.23
2022-08-03T02:46:34.748Z,17.21
2022-08-03T02:49:40.690Z,17.18
2022-08-03T02:51:55.640Z,17.15
2022-08-03T02:54:26.728Z,17.12
2022-08-03T02:56:58.851Z,17.10
2022-08-03T02:59:30.199Z,17.07
2022-08-03T03:02:02.602Z,17.06
2022-08-03T03:04:33.261Z,17.05
2022-08-03T03:07:04.397Z,17.06
2022-08-03T03:09:40.299Z,17.08
2022-08-03T03:12:12.362Z,17.14
2022-08-03T03:14:41.142Z,17.19
2022-08-03T03:17:11.571Z,17.24
2022-08-03T03:19:41.610Z,17.30
2022-08-03T03:22:11.082Z,17.35
2022-08-03T03:24:41.905Z,17.41
2022-08-03T03:27:10.564Z,17.48
2022-08-03T03:29:45.157Z,17.53
2022-08-03T03:32:14.209Z,17.56
2022-08-03T03:34:44.228Z,17.56
2022-08-03T03:37:12.773Z,17.58
2022-08-03T03:39:40.907Z,17.58
2022-08-03T03:42:09.089Z,17.58
2022-08-03T03:44:37.606Z,17.57
2022-08-03T03:47:05.898Z,17.58
2022-08-03T03:49:34.588Z,17.58
2022-08-03T03:52:03.435Z,17.56
2022-08-03T03:54:42.824Z,17.55
2022-08-03T03:57:12.966Z,17.56
2022-08-03T03:59:44.043Z,17.54
2022-08-03T04:02:12.682Z,17.53
2022-08-03T04:04:59.421Z,17.56
2022-08-03T04:07:46.508Z,17.58
2022-08-03T04:10:43.486Z,17.62
2022-08-03T04:13:15.366Z,17.66
2022-08-03T04:15:48.172Z,17.66
2022-08-03T04:18:19.268Z,17.66
2022-08-03T04:20:50.266Z,17.72
2022-08-03T04:23:22.654Z,17.77
2022-08-03T04:25:53.593Z,17.98
2022-08-03T04:28:30.543Z,18.26
2022-08-03T04:31:03.648Z,18.53
2022-08-03T04:33:34.829Z,18.73
2022-08-03T04:36:07.823Z,18.94
2022-08-03T04:38:56.088Z,19.17
2022-08-03T04:41:27.224Z,19.34
2022-08-03T04:43:58.028Z,19.52
2022-08-03T04:46:33.355Z,19.70
2022-08-03T04:49:02.528Z,20.00
2022-08-03T04:51:32.111Z,20.23
2022-08-03T04:54:00.756Z,20.28
2022-08-03T04:56:28.991Z,20.32
2022-08-03T04:58:57.299Z,20.39
2022-08-03T05:01:25.780Z,20.40
2022-08-03T05:03:54.228Z,20.30
2022-08-03T05:06:22.344Z,20.14
2022-08-03T05:08:53.522Z,19.96
2022-08-03T05:11:22.567Z,19.83
2022-08-03T05:13:50.745Z,19.77
2022-08-03T05:16:19.267Z,19.77
2022-08-03T05:18:47.448Z,19.83
2022-08-03T05:21:17.089Z,19.97
2022-08-03T05:23:45.406Z,20.04
2022-08-03T05:26:13.642Z,20.06
2022-08-03T05:28:50.787Z,20.08
2022-08-03T05:31:20.085Z,20.19
2022-08-03T05:33:49.608Z,20.29
2022-08-03T05:36:17.806Z,20.51
2022-08-03T05:38:46.169Z,20.73
2022-08-03T05:41:21.813Z,20.85
2022-08-03T05:43:55.964Z,21.02
2022-08-03T05:46:24.127Z,21.27
2022-08-03T05:48:52.512Z,21.56
2022-08-03T05:51:20.891Z,21.88
2022-08-03T05:53:49.393Z,22.17
2022-08-03T05:56:17.850Z,22.26
2022-08-03T05:58:47.928Z,22.39
2022-08-03T06:01:17.525Z,22.59
2022-08-03T06:03:46.441Z,22.84
2022-08-03T06:06:16.003Z,23.17
2022-08-03T06:08:45.787Z,23.39
2022-08-03T06:11:13.917Z,23.56
2022-08-03T06:13:42.370Z,23.73
2022-08-03T06:16:10.907Z,23.96
2022-08-03T06:18:40.654Z,24.20
2022-08-03T06:21:14.651Z,24.33
2022-08-03T06:23:52.807Z,24.48
2022-08-03T06:26:22.209Z,24.61
2022-08-03T06:42:44.347Z,25.21
2022-08-03T06:45:14.662Z,25.38
2022-08-03T06:47:43.322Z,25.74
2022-08-03T06:50:16.898Z,26.10
2022-08-03T06:52:46.623Z,26.26
2022-08-03T06:55:14.884Z,26.27
2022-08-03T06:57:43.850Z,26.44
2022-08-03T07:00:12.913Z,26.50
2022-08-03T07:02:41.514Z,26.42
2022-08-03T07:05:10.896Z,26.46
2022-08-03T07:07:40.706Z,26.60
2022-08-03T07:10:12.022Z,26.90
2022-08-03T07:12:56.194Z,27.36
2022-08-03T07:15:53.970Z,27.70
2022-08-03T07:18:14.291Z,27.94
2022-08-03T07:20:42.742Z,28.26
2022-08-03T07:23:11.999Z,28.24
2022-08-03T07:25:47.756Z,28.25
2022-08-03T07:28:16.619Z,28.01
2022-08-03T07:30:45.095Z,27.84
2022-08-03T07:33:13.414Z,28.10
2022-08-03T07:35:41.760Z,28.01
2022-08-03T07:38:09.928Z,28.00
2022-08-03T07:40:40.991Z,28.19
2022-08-03T07:43:12.650Z,28.58
2022-08-03T07:45:40.872Z,28.96
2022-08-03T07:48:12.380Z,29.24
2022-08-03T07:50:41.098Z,29.38
2022-08-03T07:53:09.332Z,29.50
2022-08-03T07:55:37.578Z,29.55
2022-08-03T07:58:12.720Z,29.52
2022-08-03T08:00:41.172Z,29.18
2022-08-03T08:03:09.357Z,29.45
2022-08-03T08:05:37.890Z,29.52
2022-08-03T08:08:07.217Z,29.44
2022-08-03T08:10:35.554Z,29.47
2022-08-03T08:13:04.911Z,29.72
2022-08-03T08:15:33.123Z,29.98
2022-08-03T08:18:02.805Z,30.36
2022-08-03T08:20:36.536Z,30.49
2022-08-03T08:23:19.963Z,30.51
2022-08-03T08:25:57.033Z,30.32
2022-08-03T08:28:31.174Z,30.58
2022-08-03T08:31:02.440Z,30.33
2022-08-03T08:33:54.208Z,29.74
2022-08-03T08:36:19.787Z,29.66
2022-08-03T08:38:48.819Z,29.85
2022-08-03T08:41:17.402Z,30.18
2022-08-03T08:43:45.561Z,30.23
2022-08-03T08:46:22.947Z,30.30
2022-08-03T08:48:53.961Z,30.37
2022-08-03T08:51:50.953Z,30.56
2022-08-03T08:54:18.473Z,30.81
2022-08-03T08:56:48.712Z,30.97
2022-08-03T08:59:18.499Z,31.23
2022-08-03T09:01:46.714Z,31.38
2022-08-03T09:04:15.126Z,30.96
2022-08-03T09:06:58.568Z,31.06
2022-08-03T09:10:10.019Z,30.88
2022-08-03T09:12:41.171Z,30.92
2022-08-03T09:15:36.034Z,31.33
2022-08-03T09:18:05.084Z,31.38
2022-08-03T09:20:34.964Z,31.15
2022-08-03T09:23:59.290Z,31.35
2022-08-03T09:26:01.955Z,31.59
2022-08-03T09:28:56.578Z,32.02
2022-08-03T09:31:37.170Z,32.33
2022-08-03T09:34:16.678Z,32.33
2022-08-03T09:36:47.129Z,32.10
2022-08-03T09:39:40.948Z,32.25
2022-08-03T09:42:14.755Z,32.29
2022-08-03T09:44:49.556Z,32.13
2022-08-03T09:47:36.754Z,32.39
2022-08-03T09:50:13.466Z,33.00
2022-08-03T09:52:49.948Z,33.43
2022-08-03T09:56:30.905Z,33.32
2022-08-03T09:58:10.840Z,32.87
2022-08-03T10:01:23.820Z,32.11
2022-08-03T10:04:02.738Z,30.80
2022-08-03T10:06:33.143Z,30.32
2022-08-03T10:09:27.636Z,29.97
2022-08-03T10:11:55.997Z,30.06
2022-08-03T10:14:26.607Z,30.21
2022-08-03T10:16:54.778Z,30.80
2022-08-03T10:19:23.145Z,31.32
2022-08-03T10:21:58.094Z,31.66
2022-08-03T10:24:29.677Z,31.87
2022-08-03T10:27:01.716Z,31.94
2022-08-03T10:29:32.562Z,32.26
2022-08-03T10:32:04.652Z,32.64
2022-08-03T10:34:42.605Z,32.79
2022-08-03T10:37:16.445Z,32.71
2022-08-03T10:39:54.163Z,32.76
2022-08-03T10:42:26.516Z,32.91
2022-08-03T10:45:07.117Z,33.21
2022-08-03T10:47:36.204Z,33.66
2022-08-03T10:50:05.321Z,34.21
2022-08-03T10:52:39.654Z,34.61
2022-08-03T10:56:01.694Z,34.53
2022-08-03T10:58:56.900Z,34.42
2022-08-03T11:02:01.698Z,34.43
2022-08-03T11:04:30.506Z,34.00
2022-08-03T11:07:18.103Z,34.23
2022-08-03T11:09:52.274Z,34.40
2022-08-03T11:12:30.505Z,34.68
2022-08-03T11:15:03.195Z,34.64
2022-08-03T11:17:33.491Z,34.20
2022-08-03T11:20:01.978Z,33.91
2022-08-03T11:22:51.105Z,33.82
2022-08-03T11:25:55.046Z,33.81
2022-08-03T11:28:30.545Z,33.73
2022-08-03T11:31:49.320Z,33.08
2022-08-03T11:34:18.819Z,33.04
2022-08-03T11:37:23.658Z,33.12
2022-08-03T11:39:55.082Z,33.09
2022-08-03T11:42:23.496Z,33.53
2022-08-03T11:44:56.985Z,33.98
2022-08-03T11:47:27.981Z,34.32
2022-08-03T11:50:00.938Z,34.71
2022-08-03T11:52:36.806Z,34.67
2022-08-03T11:55:10.649Z,34.29
2022-08-03T11:59:01.264Z,34.32
2022-08-03T12:00:30.438Z,34.66
2022-08-03T12:03:12.045Z,34.70
2022-08-03T12:05:42.100Z,34.94
2022-08-03T12:08:29.088Z,35.55
2022-08-03T12:11:00.169Z,35.79
2022-08-03T12:14:05.773Z,35.27
2022-08-03T12:16:29.077Z,35.04
2022-08-03T12:19:02.969Z,34.82
2022-08-03T12:21:31.885Z,34.37
2022-08-03T12:24:03.162Z,33.89
2022-08-03T12:26:58.816Z,33.78
2022-08-03T12:29:28.074Z,33.81
2022-08-03T12:31:56.533Z,34.21
2022-08-03T12:34:24.913Z,34.57
2022-08-03T12:37:00.454Z,34.25
2022-08-03T12:39:31.492Z,33.63
2022-08-03T12:41:59.822Z,33.65
2022-08-03T12:44:35.367Z,34.13
2022-08-03T12:47:06.918Z,34.43
2022-08-03T12:49:56.638Z,34.33
2022-08-03T12:52:29.259Z,34.53
2022-08-03T12:55:01.149Z,34.81
2022-08-03T12:57:42.761Z,34.83
2022-08-03T13:00:21.401Z,34.27
2022-08-03T13:05:57.867Z,33.16
2022-08-03T13:08:26.500Z,32.89
2022-08-03T13:10:54.876Z,32.65
2022-08-03T13:13:43.485Z,32.48
2022-08-03T13:16:15.800Z,32.21
2022-08-03T13:18:48.170Z,31.99
2022-08-03T13:21:16.915Z,31.72
2022-08-03T13:23:46.459Z,31.61
2022-08-03T13:26:14.752Z,32.09
2022-08-03T13:28:43.021Z,32.53
2022-08-03T13:31:11.503Z,32.81
2022-08-03T13:33:40.961Z,32.74
2022-08-03T13:36:09.208Z,32.34
2022-08-03T13:38:37.429Z,31.89
2022-08-03T13:41:06.305Z,31.73
2022-08-03T13:43:34.455Z,32.06
2022-08-03T13:46:02.814Z,32.40
2022-08-03T13:48:31.010Z,32.49
2022-08-03T13:51:21.874Z,32.39
2022-08-03T13:53:52.452Z,32.47
2022-08-03T13:56:21.016Z,32.98
2022-08-03T13:58:49.300Z,33.39
2022-08-03T14:01:29.679Z,33.51
2022-08-03T14:04:06.260Z,33.70
2022-08-03T14:06:49.815Z,33.74
2022-08-03T14:09:18.120Z,33.83
2022-08-03T14:12:06.921Z,33.98
2022-08-03T14:14:34.759Z,33.49
2022-08-03T14:17:02.888Z,32.66
2022-08-03T14:19:32.569Z,31.64
2022-08-03T14:22:21.713Z,30.98
2022-08-03T14:24:49.880Z,31.10
2022-08-03T14:27:19.868Z,31.63
2022-08-03T14:29:48.192Z,32.05
2022-08-03T14:32:16.477Z,32.44
2022-08-03T14:34:44.770Z,32.74
2022-08-03T14:37:13.275Z,32.46
2022-08-03T14:42:30.138Z,32.14
2022-08-03T14:45:03.400Z,31.90
2022-08-03T14:48:23.420Z,31.99
2022-08-03T14:50:38.677Z,32.39
2022-08-03T14:53:10.238Z,32.39
2022-08-03T14:55:50.836Z,32.08
2022-08-03T14:58:22.059Z,31.70
2022-08-03T15:00:52.873Z,31.56
2022-08-03T15:03:25.078Z,31.69
2022-08-03T15:05:55.972Z,31.69
2022-08-03T15:08:26.493Z,31.47
2022-08-03T15:10:55.113Z,31.29
2022-08-03T15:13:23.598Z,30.99
2022-08-03T15:15:52.234Z,30.66
2022-08-03T15:18:20.612Z,30.64
2022-08-03T15:20:50.942Z,30.56
2022-08-03T15:23:19.727Z,30.37
2022-08-03T15:26:28.010Z,30.04
2022-08-03T15:28:37.520Z,29.75
2022-08-03T15:31:07.335Z,29.73
2022-08-03T15:33:35.549Z,29.65
2022-08-03T15:36:05.017Z,29.56
2022-08-03T15:38:33.197Z,29.42
2022-08-03T15:41:01.446Z,29.32
2022-08-03T15:43:29.737Z,29.22
2022-08-03T15:46:27.728Z,29.30
2022-08-03T15:48:47.335Z,29.23
2022-08-03T15:51:15.746Z,29.08
2022-08-03T15:53:44.130Z,29.04
2022-08-03T15:56:16.770Z,29.07
2022-08-03T15:59:10.431Z,29.00
2022-08-03T16:01:35.506Z,28.77
2022-08-03T16:04:05.459Z,28.63
2022-08-03T16:06:35.769Z,28.64
2022-08-03T16:09:24.053Z,28.62
2022-08-03T16:11:55.826Z,28.56
2022-08-03T16:14:34.291Z,28.47
2022-08-03T16:17:06.261Z,28.43
2022-08-03T16:19:34.451Z,28.44
2022-08-03T16:22:04.011Z,28.44
2022-08-03T16:24:32.460Z,28.47
2022-08-03T16:27:01.697Z,28.50
2022-08-03T16:29:30.241Z,28.47
2022-08-03T16:32:09.302Z,28.41
2022-08-03T16:34:39.868Z,28.28
2022-08-03T16:37:35.719Z,28.21
2022-08-03T16:39:58.327Z,28.14
2022-08-03T16:42:27.571Z,28.08
2022-08-03T16:44:55.954Z,28.05
2022-08-03T16:47:24.256Z,28.07
2022-08-03T16:49:54.656Z,28.06
2022-08-03T16:52:25.673Z,27.95
2022-08-03T16:54:55.381Z,27.86
2022-08-03T16:57:56.461Z,27.78
2022-08-03T17:00:34.397Z,27.65
2022-08-03T17:03:18.656Z,27.56
2022-08-03T17:05:52.358Z,27.47
2022-08-03T17:08:26.528Z,27.46
2022-08-03T17:10:57.757Z,27.44
2022-08-03T17:13:38.857Z,27.36
2022-08-03T17:16:12.190Z,27.29
2022-08-03T17:18:56.203Z,27.24
2022-08-03T17:21:30.883Z,27.18
2022-08-03T17:24:03.157Z,27.12
2022-08-03T17:26:35.147Z,27.02
2022-08-03T17:29:12.873Z,26.94
2022-08-03T17:31:48.899Z,26.82
2022-08-03T17:34:19.779Z,26.71
2022-08-03T17:37:05.883Z,26.61
2022-08-03T17:42:31.003Z,26.41
2022-08-03T17:45:03.480Z,26.35
2022-08-03T17:47:43.299Z,26.28
2022-08-03T17:50:25.404Z,26.20
2022-08-03T17:53:24.463Z,26.12
2022-08-03T17:56:04.845Z,26.05
2022-08-03T17:58:58.211Z,25.95
2022-08-03T18:02:03.589Z,25.84
2022-08-03T18:04:46.578Z,25.72
2022-08-03T18:07:40.901Z,25.61
2022-08-03T18:10:15.031Z,25.52
2022-08-03T18:12:52.867Z,25.45
2022-08-03T18:15:34.937Z,25.38
2022-08-03T18:18:10.538Z,25.30
2022-08-03T18:20:42.130Z,25.22
2022-08-03T18:23:20.481Z,25.14
2022-08-03T18:25:58.194Z,25.08
2022-08-03T18:28:29.028Z,25.02
2022-08-03T18:30:58.328Z,24.95
2022-08-03T18:34:17.024Z,24.90
2022-08-03T18:36:22.133Z,24.84
2022-08-03T18:39:02.740Z,24.80
2022-08-03T18:41:34.703Z,24.75
2022-08-03T18:44:37.561Z,24.69
2022-08-03T18:47:51.491Z,24.63
2022-08-03T18:50:38.987Z,24.56
2022-08-03T18:53:19.741Z,24.47
2022-08-03T18:56:02.167Z,24.38
2022-08-03T18:58:56.026Z,24.31
2022-08-03T19:02:00.520Z,24.24
2022-08-03T19:04:53.966Z,24.15
2022-08-03T19:07:27.741Z,24.07
2022-08-03T19:10:15.674Z,24.01
2022-08-03T19:12:56.440Z,23.95
2022-08-03T19:15:36.478Z,23.90
2022-08-03T19:18:12.184Z,23.86
2022-08-03T19:20:46.964Z,23.84
2022-08-03T19:23:17.634Z,23.80
2022-08-03T19:25:46.421Z,23.75
2022-08-03T19:28:16.860Z,23.72
2022-08-03T19:30:53.752Z,23.69
2022-08-03T19:33:29.901Z,23.65
2022-08-03T19:35:59.194Z,23.59
2022-08-03T19:38:29.786Z,23.53
2022-08-03T19:41:02.110Z,23.47
2022-08-03T19:43:49.554Z,23.42
2022-08-03T19:46:30.690Z,23.39
2022-08-03T19:49:15.330Z,23.36
2022-08-03T19:52:01.084Z,23.32
2022-08-03T19:54:53.200Z,23.28
2022-08-03T19:57:27.256Z,23.24
2022-08-03T19:59:57.925Z,23.19
2022-08-03T20:02:29.871Z,23.17
2022-08-03T20:05:05.644Z,23.14
2022-08-03T20:07:48.235Z,23.10
2022-08-03T20:10:18.496Z,23.08
2022-08-03T20:12:49.930Z,23.06
2022-08-03T20:15:31.199Z,23.03
2022-08-03T20:18:01.194Z,23.00
2022-08-03T20:20:36.405Z,22.95
2022-08-03T20:23:16.120Z,22.87
2022-08-03T20:25:58.274Z,22.83
2022-08-03T20:28:50.158Z,22.78
2022-08-03T20:31:23.824Z,22.72
2022-08-03T20:34:00.595Z,22.67
2022-08-03T20:36:29.154Z,22.62
2022-08-03T20:38:59.068Z,22.58
2022-08-03T20:41:28.144Z,22.53
2022-08-03T20:44:01.193Z,22.50
2022-08-03T20:46:41.418Z,22.46
2022-08-03T20:49:19.697Z,22.42
2022-08-03T20:51:53.449Z,22.39
2022-08-03T20:54:31.122Z,22.33
2022-08-03T20:57:04.326Z,22.27
2022-08-03T20:59:47.032Z,22.20
2022-08-03T21:02:19.789Z,22.11
2022-08-03T21:05:09.164Z,21.98
2022-08-03T21:07:45.566Z,21.85
2022-08-03T21:10:37.847Z,21.72
2022-08-03T21:13:23.876Z,21.63
2022-08-03T21:16:02.559Z,21.54
2022-08-03T21:18:46.422Z,21.45
2022-08-03T21:21:16.495Z,21.36
2022-08-03T21:23:49.637Z,21.30
2022-08-03T21:26:19.989Z,21.24
2022-08-03T21:28:50.253Z,21.19
2022-08-03T21:31:24.297Z,21.14
2022-08-03T21:34:00.938Z,21.08
2022-08-03T21:36:35.108Z,21.03
2022-08-03T21:39:05.977Z,20.92
2022-08-03T21:41:35.488Z,20.88
2022-08-03T21:44:06.181Z,20.85
2022-08-03T21:46:41.338Z,20.83
2022-08-03T21:50:07.750Z,20.81
2022-08-03T21:52:05.599Z,20.74
2022-08-03T21:54:41.182Z,20.67
2022-08-03T21:57:25.455Z,20.60
2022-08-03T21:59:57.207Z,20.54
2022-08-03T22:02:32.243Z,20.50
2022-08-03T22:05:04.978Z,20.50
2022-08-03T22:07:34.827Z,20.52
2022-08-03T22:10:05.916Z,20.54
2022-08-03T22:12:35.506Z,20.54
2022-08-03T22:15:07.874Z,20.56
2022-08-03T22:17:55.837Z,20.56
2022-08-03T22:20:25.592Z,20.55
2022-08-03T22:22:57.210Z,20.53
2022-08-03T22:25:31.825Z,20.51
2022-08-03T22:28:03.422Z,20.48
2022-08-03T22:30:33.300Z,20.44
2022-08-03T22:33:03.905Z,20.41
2022-08-03T22:35:46.400Z,20.39
2022-08-03T22:38:18.543Z,20.36
2022-08-03T22:40:51.261Z,20.33
2022-08-03T22:43:24.973Z,20.29
2022-08-03T22:46:09.131Z,20.25
2022-08-03T22:48:41.009Z,20.20
2022-08-03T22:51:10.536Z,20.16
2022-08-03T22:53:40.463Z,20.11
2022-08-03T22:56:09.236Z,20.06
2022-08-03T22:58:37.514Z,20.02
2022-08-03T23:01:11.755Z,19.98
2022-08-03T23:04:00.341Z,19.91
2022-08-03T23:06:45.390Z,19.84
2022-08-03T23:09:14.303Z,19.77
2022-08-03T23:11:46.044Z,19.73
2022-08-03T23:14:18.315Z,19.68
2022-08-03T23:16:48.031Z,19.63
2022-08-03T23:19:25.620Z,19.61
2022-08-03T23:22:03.442Z,19.57
2022-08-03T23:24:36.833Z,19.55
2022-08-03T23:27:06.986Z,19.53
2022-08-03T23:29:37.483Z,19.49
2022-08-03T23:32:06.813Z,19.46
2022-08-03T23:34:57.312Z,19.43
2022-08-03T23:37:26.168Z,19.39
2022-08-03T23:39:57.174Z,19.36
2022-08-03T23:42:26.583Z,19.33
2022-08-03T23:45:05.517Z,19.31
2022-08-03T23:47:46.426Z,19.26
2022-08-03T23:50:17.037Z,19.20
2022-08-03T23:53:17.212Z,19.14
2022-08-03T23:56:13.603Z,19.01
2022-08-03T23:59:13.778Z,19.00
